sensor_id;sensor_type;location;lat;lon;timestamp;P1;durP1;ratioP1;P2;durP2;ratioP2
48481;SDS011;34284;48.278;16.378;2023-03-31T00:01:28;2.95;;;2.28;;
48481;SDS011;34284;48.278;16.378;2023-03-31T00:03:54;4.55;;;2.20;;
48481;SDS011;34284;48.278;16.378;2023-03-31T00:06:26;4.10;;;2.38;;
48481;SDS011;34284;48.278;16.378;2023-03-31T00:08:52;4.25;;;2.28;;
48481;SDS011;34284;48.278;16.378;2023-03-31T00:11:19;4.72;;;2.42;;
48481;SDS011;34284;48.278;16.378;2023-03-31T00:13:46;6.32;;;2.80;;
48481;SDS011;34284;48.278;16.378;2023-03-31T00:16:12;4.40;;;2.53;;
48481;SDS011;34284;48.278;16.378;2023-03-31T00:18:39;5.03;;;2.38;;
48481;SDS011;34284;48.278;16.378;2023-03-31T00:23:58;3.22;;;2.53;;
48481;SDS011;34284;48.278;16.378;2023-03-31T00:26:25;6.28;;;2.70;;
48481;SDS011;34284;48.278;16.378;2023-03-31T00:28:52;3.33;;;2.70;;
48481;SDS011;34284;48.278;16.378;2023-03-31T00:31:18;4.63;;;2.17;;
48481;SDS011;34284;48.278;16.378;2023-03-31T00:33:45;3.38;;;2.40;;
48481;SDS011;34284;48.278;16.378;2023-03-31T00:36:11;3.13;;;2.25;;
48481;SDS011;34284;48.278;16.378;2023-03-31T00:38:37;3.40;;;2.00;;
48481;SDS011;34284;48.278;16.378;2023-03-31T00:41:03;5.82;;;2.30;;
48481;SDS011;34284;48.278;16.378;2023-03-31T00:43:34;4.57;;;2.03;;
48481;SDS011;34284;48.278;16.378;2023-03-31T00:46:02;7.18;;;2.58;;
48481;SDS011;34284;48.278;16.378;2023-03-31T00:48:29;4.35;;;2.20;;
48481;SDS011;34284;48.278;16.378;2023-03-31T00:50:56;4.20;;;2.00;;
48481;SDS011;34284;48.278;16.378;2023-03-31T00:53:25;3.47;;;2.15;;
48481;SDS011;34284;48.278;16.378;2023-03-31T00:55:53;11.70;;;2.38;;
48481;SDS011;34284;48.278;16.378;2023-03-31T00:58:20;5.78;;;2.85;;
48481;SDS011;34284;48.278;16.378;2023-03-31T01:00:52;3.95;;;2.30;;
48481;SDS011;34284;48.278;16.378;2023-03-31T01:03:19;3.92;;;2.30;;
48481;SDS011;34284;48.278;16.378;2023-03-31T01:05:50;8.15;;;4.78;;
48481;SDS011;34284;48.278;16.378;2023-03-31T01:08:17;17.20;;;6.32;;
48481;SDS011;34284;48.278;16.378;2023-03-31T01:10:44;17.88;;;7.75;;
48481;SDS011;34284;48.278;16.378;2023-03-31T01:13:12;21.02;;;7.32;;
48481;SDS011;34284;48.278;16.378;2023-03-31T01:15:39;17.77;;;6.97;;
48481;SDS011;34284;48.278;16.378;2023-03-31T01:18:07;20.90;;;7.75;;
48481;SDS011;34284;48.278;16.378;2023-03-31T01:52:03;4.60;;;2.83;;
48481;SDS011;34284;48.278;16.378;2023-03-31T01:54:36;4.07;;;2.38;;
48481;SDS011;34284;48.278;16.378;2023-03-31T01:57:10;4.30;;;2.30;;
48481;SDS011;34284;48.278;16.378;2023-03-31T02:02:16;6.90;;;3.90;;
48481;SDS011;34284;48.278;16.378;2023-03-31T02:04:52;8.52;;;3.78;;
48481;SDS011;34284;48.278;16.378;2023-03-31T02:07:20;7.28;;;3.53;;
48481;SDS011;34284;48.278;16.378;2023-03-31T02:09:49;5.28;;;2.95;;
48481;SDS011;34284;48.278;16.378;2023-03-31T02:12:17;7.03;;;3.13;;
48481;SDS011;34284;48.278;16.378;2023-03-31T02:14:44;6.45;;;3.15;;
48481;SDS011;34284;48.278;16.378;2023-03-31T02:17:14;6.57;;;2.35;;
48481;SDS011;34284;48.278;16.378;2023-03-31T02:19:42;7.97;;;2.80;;
48481;SDS011;34284;48.278;16.378;2023-03-31T02:22:10;4.95;;;2.22;;
48481;SDS011;34284;48.278;16.378;2023-03-31T02:24:37;2.97;;;2.05;;
48481;SDS011;34284;48.278;16.378;2023-03-31T02:29:30;6.63;;;2.85;;
48481;SDS011;34284;48.278;16.378;2023-03-31T02:32:03;5.05;;;2.63;;
48481;SDS011;34284;48.278;16.378;2023-03-31T02:34:32;6.57;;;2.85;;
48481;SDS011;34284;48.278;16.378;2023-03-31T02:36:58;4.93;;;2.33;;
48481;SDS011;34284;48.278;16.378;2023-03-31T02:39:27;7.90;;;2.90;;
48481;SDS011;34284;48.278;16.378;2023-03-31T02:41:54;5.88;;;2.20;;
48481;SDS011;34284;48.278;16.378;2023-03-31T02:44:21;7.03;;;3.35;;
48481;SDS011;34284;48.278;16.378;2023-03-31T02:46:48;5.13;;;2.08;;
48481;SDS011;34284;48.278;16.378;2023-03-31T02:49:14;5.03;;;2.50;;
48481;SDS011;34284;48.278;16.378;2023-03-31T03:09:34;3.50;;;2.67;;
48481;SDS011;34284;48.278;16.378;2023-03-31T03:14:41;2.95;;;2.00;;
48481;SDS011;34284;48.278;16.378;2023-03-31T03:17:13;3.47;;;1.70;;
48481;SDS011;34284;48.278;16.378;2023-03-31T03:19:41;2.17;;;1.40;;
48481;SDS011;34284;48.278;16.378;2023-03-31T03:22:07;5.80;;;2.42;;
48481;SDS011;34284;48.278;16.378;2023-03-31T03:24:33;4.85;;;2.40;;
48481;SDS011;34284;48.278;16.378;2023-03-31T03:27:00;4.22;;;2.08;;
48481;SDS011;34284;48.278;16.378;2023-03-31T03:29:26;3.92;;;2.25;;
48481;SDS011;34284;48.278;16.378;2023-03-31T03:31:52;5.15;;;2.35;;
48481;SDS011;34284;48.278;16.378;2023-03-31T03:34:19;7.50;;;2.60;;
48481;SDS011;34284;48.278;16.378;2023-03-31T03:36:45;5.15;;;2.47;;
48481;SDS011;34284;48.278;16.378;2023-03-31T03:39:11;4.65;;;1.83;;
48481;SDS011;34284;48.278;16.378;2023-03-31T03:41:37;5.65;;;2.17;;
48481;SDS011;34284;48.278;16.378;2023-03-31T03:44:03;3.45;;;2.42;;
48481;SDS011;34284;48.278;16.378;2023-03-31T03:46:29;5.00;;;2.30;;
48481;SDS011;34284;48.278;16.378;2023-03-31T03:48:55;3.28;;;2.05;;
48481;SDS011;34284;48.278;16.378;2023-03-31T03:51:21;5.22;;;2.45;;
48481;SDS011;34284;48.278;16.378;2023-03-31T03:53:47;6.55;;;3.38;;
48481;SDS011;34284;48.278;16.378;2023-03-31T03:56:13;4.30;;;2.78;;
48481;SDS011;34284;48.278;16.378;2023-03-31T03:58:39;5.47;;;2.63;;
48481;SDS011;34284;48.278;16.378;2023-03-31T04:01:05;9.18;;;3.10;;
48481;SDS011;34284;48.278;16.378;2023-03-31T04:03:31;8.35;;;3.22;;
48481;SDS011;34284;48.278;16.378;2023-03-31T04:05:57;6.05;;;3.10;;
48481;SDS011;34284;48.278;16.378;2023-03-31T04:08:23;5.57;;;2.92;;
48481;SDS011;34284;48.278;16.378;2023-03-31T04:10:49;6.95;;;3.33;;
48481;SDS011;34284;48.278;16.378;2023-03-31T04:13:16;9.10;;;3.80;;
48481;SDS011;34284;48.278;16.378;2023-03-31T04:15:42;8.10;;;3.80;;
48481;SDS011;34284;48.278;16.378;2023-03-31T04:18:08;9.48;;;4.75;;
48481;SDS011;34284;48.278;16.378;2023-03-31T04:20:35;8.73;;;3.30;;
48481;SDS011;34284;48.278;16.378;2023-03-31T04:23:02;7.07;;;2.83;;
48481;SDS011;34284;48.278;16.378;2023-03-31T04:25:29;4.68;;;2.53;;
48481;SDS011;34284;48.278;16.378;2023-03-31T04:27:55;6.05;;;2.65;;
48481;SDS011;34284;48.278;16.378;2023-03-31T04:30:25;6.68;;;2.53;;
48481;SDS011;34284;48.278;16.378;2023-03-31T04:32:58;8.75;;;2.97;;
48481;SDS011;34284;48.278;16.378;2023-03-31T04:35:28;7.20;;;3.55;;
48481;SDS011;34284;48.278;16.378;2023-03-31T04:38:06;8.05;;;2.95;;
48481;SDS011;34284;48.278;16.378;2023-03-31T04:40:33;5.40;;;3.10;;
48481;SDS011;34284;48.278;16.378;2023-03-31T04:42:59;5.72;;;3.13;;
48481;SDS011;34284;48.278;16.378;2023-03-31T04:45:25;7.50;;;3.53;;
48481;SDS011;34284;48.278;16.378;2023-03-31T04:47:51;7.43;;;2.80;;
48481;SDS011;34284;48.278;16.378;2023-03-31T04:50:17;6.50;;;2.90;;
48481;SDS011;34284;48.278;16.378;2023-03-31T04:52:43;7.30;;;3.22;;
48481;SDS011;34284;48.278;16.378;2023-03-31T04:55:09;4.65;;;2.90;;
48481;SDS011;34284;48.278;16.378;2023-03-31T04:57:35;5.72;;;3.10;;
48481;SDS011;34284;48.278;16.378;2023-03-31T05:00:02;10.05;;;3.67;;
48481;SDS011;34284;48.278;16.378;2023-03-31T05:02:31;6.55;;;2.92;;
48481;SDS011;34284;48.278;16.378;2023-03-31T05:04:57;5.38;;;3.55;;
48481;SDS011;34284;48.278;16.378;2023-03-31T05:07:23;5.88;;;3.17;;
48481;SDS011;34284;48.278;16.378;2023-03-31T05:09:50;6.00;;;3.78;;
48481;SDS011;34284;48.278;16.378;2023-03-31T05:12:16;7.97;;;4.72;;
48481;SDS011;34284;48.278;16.378;2023-03-31T05:14:42;8.55;;;4.07;;
48481;SDS011;34284;48.278;16.378;2023-03-31T05:17:08;9.88;;;5.18;;
48481;SDS011;34284;48.278;16.378;2023-03-31T05:19:35;9.68;;;5.40;;
48481;SDS011;34284;48.278;16.378;2023-03-31T05:22:01;20.48;;;9.05;;
48481;SDS011;34284;48.278;16.378;2023-03-31T05:24:27;10.90;;;4.55;;
48481;SDS011;34284;48.278;16.378;2023-03-31T05:26:54;17.88;;;6.85;;
48481;SDS011;34284;48.278;16.378;2023-03-31T05:29:21;13.98;;;6.18;;
48481;SDS011;34284;48.278;16.378;2023-03-31T05:31:48;17.48;;;7.68;;
48481;SDS011;34284;48.278;16.378;2023-03-31T05:34:14;12.13;;;5.30;;
48481;SDS011;34284;48.278;16.378;2023-03-31T05:36:40;9.77;;;4.78;;
48481;SDS011;34284;48.278;16.378;2023-03-31T05:39:07;9.48;;;5.57;;
48481;SDS011;34284;48.278;16.378;2023-03-31T05:41:33;9.63;;;4.97;;
48481;SDS011;34284;48.278;16.378;2023-03-31T05:43:59;8.73;;;5.05;;
48481;SDS011;34284;48.278;16.378;2023-03-31T05:46:28;8.52;;;4.45;;
48481;SDS011;34284;48.278;16.378;2023-03-31T05:48:54;9.10;;;4.22;;
48481;SDS011;34284;48.278;16.378;2023-03-31T05:51:20;13.55;;;4.60;;
48481;SDS011;34284;48.278;16.378;2023-03-31T05:53:46;8.02;;;4.80;;
48481;SDS011;34284;48.278;16.378;2023-03-31T05:56:12;18.92;;;6.45;;
48481;SDS011;34284;48.278;16.378;2023-03-31T05:58:39;11.43;;;5.95;;
48481;SDS011;34284;48.278;16.378;2023-03-31T06:03:34;8.13;;;5.07;;
48481;SDS011;34284;48.278;16.378;2023-03-31T06:06:01;8.45;;;5.28;;
48481;SDS011;34284;48.278;16.378;2023-03-31T06:08:29;14.27;;;5.68;;
48481;SDS011;34284;48.278;16.378;2023-03-31T06:10:55;12.80;;;4.95;;
48481;SDS011;34284;48.278;16.378;2023-03-31T06:13:21;10.18;;;5.60;;
48481;SDS011;34284;48.278;16.378;2023-03-31T06:15:55;11.88;;;4.75;;
48481;SDS011;34284;48.278;16.378;2023-03-31T06:18:21;9.25;;;4.88;;
48481;SDS011;34284;48.278;16.378;2023-03-31T06:20:47;11.77;;;5.63;;
48481;SDS011;34284;48.278;16.378;2023-03-31T06:23:13;9.80;;;4.90;;
48481;SDS011;34284;48.278;16.378;2023-03-31T06:25:39;9.02;;;4.72;;
48481;SDS011;34284;48.278;16.378;2023-03-31T06:28:08;9.93;;;5.05;;
48481;SDS011;34284;48.278;16.378;2023-03-31T06:30:34;13.38;;;4.55;;
48481;SDS011;34284;48.278;16.378;2023-03-31T06:33:00;9.02;;;4.20;;
48481;SDS011;34284;48.278;16.378;2023-03-31T06:35:26;8.85;;;3.75;;
48481;SDS011;34284;48.278;16.378;2023-03-31T06:37:52;7.10;;;4.10;;
48481;SDS011;34284;48.278;16.378;2023-03-31T06:40:19;10.23;;;4.78;;
48481;SDS011;34284;48.278;16.378;2023-03-31T06:42:44;7.35;;;4.18;;
48481;SDS011;34284;48.278;16.378;2023-03-31T06:45:11;6.50;;;4.03;;
48481;SDS011;34284;48.278;16.378;2023-03-31T06:47:37;17.75;;;4.82;;
48481;SDS011;34284;48.278;16.378;2023-03-31T06:50:05;10.63;;;4.82;;
48481;SDS011;34284;48.278;16.378;2023-03-31T06:52:32;11.13;;;4.82;;
48481;SDS011;34284;48.278;16.378;2023-03-31T06:54:58;9.05;;;4.47;;
48481;SDS011;34284;48.278;16.378;2023-03-31T06:57:24;7.07;;;4.47;;
48481;SDS011;34284;48.278;16.378;2023-03-31T06:59:51;6.00;;;4.57;;
48481;SDS011;34284;48.278;16.378;2023-03-31T07:02:16;12.73;;;4.22;;
48481;SDS011;34284;48.278;16.378;2023-03-31T07:04:43;6.68;;;3.88;;
48481;SDS011;34284;48.278;16.378;2023-03-31T07:07:09;8.50;;;3.90;;
48481;SDS011;34284;48.278;16.378;2023-03-31T07:09:35;7.57;;;3.80;;
48481;SDS011;34284;48.278;16.378;2023-03-31T07:12:02;9.68;;;4.68;;
48481;SDS011;34284;48.278;16.378;2023-03-31T07:14:29;8.48;;;4.22;;
48481;SDS011;34284;48.278;16.378;2023-03-31T07:16:55;12.52;;;3.80;;
48481;SDS011;34284;48.278;16.378;2023-03-31T07:19:22;8.10;;;3.70;;
48481;SDS011;34284;48.278;16.378;2023-03-31T07:21:48;8.02;;;3.50;;
48481;SDS011;34284;48.278;16.378;2023-03-31T07:24:14;9.00;;;3.85;;
48481;SDS011;34284;48.278;16.378;2023-03-31T07:26:40;8.23;;;2.90;;
48481;SDS011;34284;48.278;16.378;2023-03-31T07:29:06;11.20;;;3.30;;
48481;SDS011;34284;48.278;16.378;2023-03-31T07:31:32;10.70;;;4.50;;
48481;SDS011;34284;48.278;16.378;2023-03-31T07:33:59;5.53;;;3.55;;
48481;SDS011;34284;48.278;16.378;2023-03-31T07:36:25;9.60;;;3.33;;
48481;SDS011;34284;48.278;16.378;2023-03-31T07:38:51;9.02;;;3.83;;
48481;SDS011;34284;48.278;16.378;2023-03-31T07:41:18;9.13;;;3.03;;
48481;SDS011;34284;48.278;16.378;2023-03-31T07:43:45;10.35;;;4.00;;
48481;SDS011;34284;48.278;16.378;2023-03-31T07:48:43;8.65;;;4.00;;
48481;SDS011;34284;48.278;16.378;2023-03-31T07:51:10;8.85;;;3.70;;
48481;SDS011;34284;48.278;16.378;2023-03-31T07:53:36;7.22;;;3.40;;
48481;SDS011;34284;48.278;16.378;2023-03-31T07:56:02;8.32;;;3.50;;
48481;SDS011;34284;48.278;16.378;2023-03-31T07:58:28;9.55;;;3.08;;
48481;SDS011;34284;48.278;16.378;2023-03-31T08:00:54;6.70;;;2.03;;
48481;SDS011;34284;48.278;16.378;2023-03-31T08:03:21;8.15;;;3.45;;
48481;SDS011;34284;48.278;16.378;2023-03-31T08:05:49;5.40;;;2.50;;
48481;SDS011;34284;48.278;16.378;2023-03-31T08:08:15;6.63;;;2.53;;
48481;SDS011;34284;48.278;16.378;2023-03-31T08:10:41;8.98;;;2.75;;
48481;SDS011;34284;48.278;16.378;2023-03-31T08:13:08;7.00;;;2.58;;
48481;SDS011;34284;48.278;16.378;2023-03-31T08:15:34;5.85;;;2.70;;
48481;SDS011;34284;48.278;16.378;2023-03-31T08:18:00;10.10;;;2.53;;
48481;SDS011;34284;48.278;16.378;2023-03-31T08:20:26;6.78;;;2.40;;
48481;SDS011;34284;48.278;16.378;2023-03-31T08:22:51;8.57;;;2.90;;
48481;SDS011;34284;48.278;16.378;2023-03-31T08:25:17;12.05;;;3.85;;
48481;SDS011;34284;48.278;16.378;2023-03-31T08:27:45;7.03;;;2.97;;
48481;SDS011;34284;48.278;16.378;2023-03-31T08:30:15;18.25;;;3.75;;
48481;SDS011;34284;48.278;16.378;2023-03-31T08:32:41;8.75;;;3.55;;
48481;SDS011;34284;48.278;16.378;2023-03-31T08:35:08;6.75;;;2.85;;
48481;SDS011;34284;48.278;16.378;2023-03-31T08:37:37;8.25;;;2.83;;
48481;SDS011;34284;48.278;16.378;2023-03-31T08:40:04;10.77;;;3.17;;
48481;SDS011;34284;48.278;16.378;2023-03-31T08:47:32;8.35;;;3.00;;
48481;SDS011;34284;48.278;16.378;2023-03-31T08:50:03;7.45;;;2.70;;
48481;SDS011;34284;48.278;16.378;2023-03-31T08:52:37;7.40;;;2.50;;
48481;SDS011;34284;48.278;16.378;2023-03-31T08:55:06;5.57;;;2.13;;
48481;SDS011;34284;48.278;16.378;2023-03-31T09:00:18;8.07;;;2.47;;
48481;SDS011;34284;48.278;16.378;2023-03-31T09:20:39;8.85;;;2.40;;
48481;SDS011;34284;48.278;16.378;2023-03-31T09:25:38;9.77;;;3.30;;
48481;SDS011;34284;48.278;16.378;2023-03-31T09:28:08;5.40;;;2.42;;
48481;SDS011;34284;48.278;16.378;2023-03-31T09:30:36;4.15;;;2.20;;
48481;SDS011;34284;48.278;16.378;2023-03-31T09:35:47;6.10;;;3.20;;
48481;SDS011;34284;48.278;16.378;2023-03-31T09:38:14;5.85;;;2.90;;
48481;SDS011;34284;48.278;16.378;2023-03-31T09:40:40;7.95;;;2.53;;
48481;SDS011;34284;48.278;16.378;2023-03-31T09:43:07;6.70;;;2.90;;
48481;SDS011;34284;48.278;16.378;2023-03-31T09:45:35;6.88;;;2.40;;
48481;SDS011;34284;48.278;16.378;2023-03-31T09:48:06;6.15;;;2.55;;
48481;SDS011;34284;48.278;16.378;2023-03-31T09:53:01;6.25;;;2.85;;
48481;SDS011;34284;48.278;16.378;2023-03-31T09:58:05;10.45;;;3.80;;
48481;SDS011;34284;48.278;16.378;2023-03-31T10:00:31;4.82;;;2.40;;
48481;SDS011;34284;48.278;16.378;2023-03-31T10:03:02;7.88;;;2.78;;
48481;SDS011;34284;48.278;16.378;2023-03-31T10:10:45;9.25;;;2.97;;
48481;SDS011;34284;48.278;16.378;2023-03-31T10:13:15;10.32;;;3.95;;
48481;SDS011;34284;48.278;16.378;2023-03-31T10:15:42;8.00;;;2.85;;
48481;SDS011;34284;48.278;16.378;2023-03-31T10:18:15;9.50;;;3.30;;
48481;SDS011;34284;48.278;16.378;2023-03-31T10:20:51;9.95;;;3.40;;
48481;SDS011;34284;48.278;16.378;2023-03-31T10:25:44;10.43;;;3.75;;
48481;SDS011;34284;48.278;16.378;2023-03-31T10:28:11;10.93;;;3.92;;
48481;SDS011;34284;48.278;16.378;2023-03-31T10:30:40;6.75;;;3.60;;
48481;SDS011;34284;48.278;16.378;2023-03-31T10:33:12;6.10;;;3.90;;
48481;SDS011;34284;48.278;16.378;2023-03-31T10:35:41;5.88;;;3.10;;
48481;SDS011;34284;48.278;16.378;2023-03-31T10:38:12;9.40;;;3.72;;
48481;SDS011;34284;48.278;16.378;2023-03-31T10:40:39;6.32;;;3.40;;
48481;SDS011;34284;48.278;16.378;2023-03-31T10:45:51;7.50;;;3.38;;
48481;SDS011;34284;48.278;16.378;2023-03-31T10:50:59;5.82;;;3.63;;
48481;SDS011;34284;48.278;16.378;2023-03-31T10:53:25;9.82;;;3.45;;
48481;SDS011;34284;48.278;16.378;2023-03-31T11:03:30;6.50;;;3.55;;
48481;SDS011;34284;48.278;16.378;2023-03-31T11:06:12;6.53;;;3.35;;
48481;SDS011;34284;48.278;16.378;2023-03-31T11:11:28;4.15;;;3.22;;
48481;SDS011;34284;48.278;16.378;2023-03-31T11:14:02;6.85;;;3.05;;
48481;SDS011;34284;48.278;16.378;2023-03-31T11:37:36;10.18;;;4.38;;
48481;SDS011;34284;48.278;16.378;2023-03-31T11:42:47;9.43;;;3.30;;
48481;SDS011;34284;48.278;16.378;2023-03-31T11:45:22;11.63;;;4.10;;
48481;SDS011;34284;48.278;16.378;2023-03-31T11:47:51;5.57;;;3.28;;
48481;SDS011;34284;48.278;16.378;2023-03-31T11:50:20;5.15;;;2.75;;
48481;SDS011;34284;48.278;16.378;2023-03-31T11:52:50;3.80;;;2.85;;
48481;SDS011;34284;48.278;16.378;2023-03-31T11:55:19;4.82;;;2.53;;
48481;SDS011;34284;48.278;16.378;2023-03-31T12:00:20;4.85;;;2.97;;
48481;SDS011;34284;48.278;16.378;2023-03-31T12:02:50;4.57;;;2.85;;
48481;SDS011;34284;48.278;16.378;2023-03-31T12:05:18;5.53;;;2.72;;
48481;SDS011;34284;48.278;16.378;2023-03-31T12:10:19;4.78;;;2.60;;
48481;SDS011;34284;48.278;16.378;2023-03-31T12:12:53;6.70;;;2.72;;
48481;SDS011;34284;48.278;16.378;2023-03-31T12:15:24;6.75;;;3.10;;
48481;SDS011;34284;48.278;16.378;2023-03-31T12:17:56;8.40;;;3.40;;
48481;SDS011;34284;48.278;16.378;2023-03-31T12:20:28;4.80;;;3.00;;
48481;SDS011;34284;48.278;16.378;2023-03-31T12:22:55;5.85;;;2.97;;
48481;SDS011;34284;48.278;16.378;2023-03-31T12:25:23;8.75;;;3.20;;
48481;SDS011;34284;48.278;16.378;2023-03-31T12:27:52;6.50;;;2.90;;
48481;SDS011;34284;48.278;16.378;2023-03-31T12:32:46;7.05;;;3.15;;
48481;SDS011;34284;48.278;16.378;2023-03-31T12:35:56;6.22;;;3.35;;
48481;SDS011;34284;48.278;16.378;2023-03-31T12:43:17;5.55;;;2.80;;
48481;SDS011;34284;48.278;16.378;2023-03-31T12:45:49;7.07;;;2.70;;
48481;SDS011;34284;48.278;16.378;2023-03-31T12:56:00;5.85;;;3.30;;
48481;SDS011;34284;48.278;16.378;2023-03-31T13:01:02;4.82;;;3.00;;
48481;SDS011;34284;48.278;16.378;2023-03-31T13:03:43;5.45;;;2.53;;
48481;SDS011;34284;48.278;16.378;2023-03-31T13:06:49;5.95;;;2.97;;
48481;SDS011;34284;48.278;16.378;2023-03-31T13:09:05;6.63;;;2.92;;
48481;SDS011;34284;48.278;16.378;2023-03-31T13:11:43;6.95;;;2.75;;
48481;SDS011;34284;48.278;16.378;2023-03-31T13:16:47;5.05;;;2.85;;
48481;SDS011;34284;48.278;16.378;2023-03-31T13:19:25;6.28;;;3.58;;
48481;SDS011;34284;48.278;16.378;2023-03-31T13:21:56;6.10;;;2.80;;
48481;SDS011;34284;48.278;16.378;2023-03-31T13:24:22;4.88;;;3.30;;
48481;SDS011;34284;48.278;16.378;2023-03-31T13:26:49;4.57;;;3.00;;
48481;SDS011;34284;48.278;16.378;2023-03-31T13:34:28;9.88;;;3.20;;
48481;SDS011;34284;48.278;16.378;2023-03-31T13:37:18;6.75;;;3.63;;
48481;SDS011;34284;48.278;16.378;2023-03-31T13:47:57;3.58;;;2.28;;
48481;SDS011;34284;48.278;16.378;2023-03-31T13:58:22;5.28;;;2.30;;
48481;SDS011;34284;48.278;16.378;2023-03-31T14:01:10;6.75;;;2.22;;
48481;SDS011;34284;48.278;16.378;2023-03-31T14:11:25;3.35;;;1.50;;
48481;SDS011;34284;48.278;16.378;2023-03-31T14:14:13;3.63;;;1.90;;
48481;SDS011;34284;48.278;16.378;2023-03-31T14:16:44;3.72;;;1.55;;
48481;SDS011;34284;48.278;16.378;2023-03-31T14:21:45;4.28;;;2.10;;
48481;SDS011;34284;48.278;16.378;2023-03-31T14:29:13;3.05;;;1.95;;
48481;SDS011;34284;48.278;16.378;2023-03-31T14:39:22;6.82;;;4.22;;
48481;SDS011;34284;48.278;16.378;2023-03-31T14:41:50;11.43;;;6.32;;
48481;SDS011;34284;48.278;16.378;2023-03-31T14:44:17;3.28;;;2.08;;
48481;SDS011;34284;48.278;16.378;2023-03-31T14:46:43;4.60;;;2.10;;
48481;SDS011;34284;48.278;16.378;2023-03-31T14:49:16;3.28;;;2.00;;
48481;SDS011;34284;48.278;16.378;2023-03-31T14:51:43;2.83;;;2.15;;
48481;SDS011;34284;48.278;16.378;2023-03-31T14:54:16;5.53;;;2.10;;
48481;SDS011;34284;48.278;16.378;2023-03-31T14:56:45;5.00;;;2.40;;
48481;SDS011;34284;48.278;16.378;2023-03-31T14:59:15;4.88;;;1.88;;
48481;SDS011;34284;48.278;16.378;2023-03-31T15:01:43;3.85;;;2.20;;
48481;SDS011;34284;48.278;16.378;2023-03-31T15:04:14;6.10;;;2.80;;
48481;SDS011;34284;48.278;16.378;2023-03-31T15:06:40;5.63;;;2.15;;
48481;SDS011;34284;48.278;16.378;2023-03-31T15:09:11;4.20;;;2.20;;
48481;SDS011;34284;48.278;16.378;2023-03-31T15:11:40;3.72;;;1.83;;
48481;SDS011;34284;48.278;16.378;2023-03-31T15:14:07;4.03;;;2.05;;
48481;SDS011;34284;48.278;16.378;2023-03-31T15:21:44;6.15;;;2.20;;
48481;SDS011;34284;48.278;16.378;2023-03-31T15:24:11;10.10;;;2.47;;
48481;SDS011;34284;48.278;16.378;2023-03-31T15:26:48;5.82;;;1.95;;
48481;SDS011;34284;48.278;16.378;2023-03-31T15:29:19;2.97;;;1.55;;
48481;SDS011;34284;48.278;16.378;2023-03-31T15:31:46;4.75;;;1.00;;
48481;SDS011;34284;48.278;16.378;2023-03-31T15:34:20;4.00;;;1.00;;
48481;SDS011;34284;48.278;16.378;2023-03-31T15:36:48;3.90;;;1.08;;
48481;SDS011;34284;48.278;16.378;2023-03-31T15:39:14;2.97;;;1.55;;
48481;SDS011;34284;48.278;16.378;2023-03-31T15:41:40;2.58;;;0.95;;
48481;SDS011;34284;48.278;16.378;2023-03-31T15:44:27;3.40;;;0.95;;
48481;SDS011;34284;48.278;16.378;2023-03-31T15:47:00;4.70;;;0.80;;
48481;SDS011;34284;48.278;16.378;2023-03-31T15:49:30;1.77;;;0.90;;
48481;SDS011;34284;48.278;16.378;2023-03-31T15:51:56;2.88;;;1.00;;
48481;SDS011;34284;48.278;16.378;2023-03-31T15:54:45;1.02;;;0.60;;
48481;SDS011;34284;48.278;16.378;2023-03-31T15:57:11;3.65;;;1.23;;
48481;SDS011;34284;48.278;16.378;2023-03-31T15:59:44;1.95;;;0.90;;
48481;SDS011;34284;48.278;16.378;2023-03-31T16:02:12;4.38;;;0.80;;
48481;SDS011;34284;48.278;16.378;2023-03-31T16:04:40;1.27;;;0.90;;
48481;SDS011;34284;48.278;16.378;2023-03-31T16:07:08;1.15;;;0.70;;
48481;SDS011;34284;48.278;16.378;2023-03-31T16:19:56;1.95;;;0.80;;
48481;SDS011;34284;48.278;16.378;2023-03-31T16:22:24;2.80;;;1.20;;
48481;SDS011;34284;48.278;16.378;2023-03-31T16:24:51;2.08;;;0.98;;
48481;SDS011;34284;48.278;16.378;2023-03-31T16:27:17;1.73;;;0.73;;
48481;SDS011;34284;48.278;16.378;2023-03-31T16:29:43;3.47;;;1.30;;
48481;SDS011;34284;48.278;16.378;2023-03-31T16:32:11;3.03;;;1.33;;
48481;SDS011;34284;48.278;16.378;2023-03-31T16:34:57;1.95;;;1.10;;
48481;SDS011;34284;48.278;16.378;2023-03-31T16:37:23;1.30;;;0.93;;
48481;SDS011;34284;48.278;16.378;2023-03-31T16:39:49;2.45;;;1.67;;
48481;SDS011;34284;48.278;16.378;2023-03-31T16:42:16;1.58;;;0.90;;
48481;SDS011;34284;48.278;16.378;2023-03-31T16:44:42;1.80;;;1.20;;
48481;SDS011;34284;48.278;16.378;2023-03-31T16:47:09;3.55;;;1.30;;
48481;SDS011;34284;48.278;16.378;2023-03-31T16:49:35;3.92;;;1.75;;
48481;SDS011;34284;48.278;16.378;2023-03-31T16:52:02;5.10;;;2.05;;
48481;SDS011;34284;48.278;16.378;2023-03-31T16:54:29;6.82;;;1.70;;
48481;SDS011;34284;48.278;16.378;2023-03-31T16:56:55;3.83;;;1.70;;
48481;SDS011;34284;48.278;16.378;2023-03-31T16:59:21;1.92;;;1.20;;
48481;SDS011;34284;48.278;16.378;2023-03-31T17:01:48;7.10;;;2.53;;
48481;SDS011;34284;48.278;16.378;2023-03-31T17:04:15;5.72;;;1.77;;
48481;SDS011;34284;48.278;16.378;2023-03-31T17:06:41;3.83;;;2.05;;
48481;SDS011;34284;48.278;16.378;2023-03-31T17:09:08;2.85;;;1.83;;
48481;SDS011;34284;48.278;16.378;2023-03-31T17:11:34;7.72;;;3.03;;
48481;SDS011;34284;48.278;16.378;2023-03-31T17:14:01;3.95;;;1.63;;
48481;SDS011;34284;48.278;16.378;2023-03-31T17:16:29;2.72;;;1.38;;
48481;SDS011;34284;48.278;16.378;2023-03-31T17:18:55;3.80;;;2.00;;
48481;SDS011;34284;48.278;16.378;2023-03-31T17:21:21;2.97;;;1.83;;
48481;SDS011;34284;48.278;16.378;2023-03-31T17:23:48;3.42;;;1.17;;
48481;SDS011;34284;48.278;16.378;2023-03-31T17:26:14;3.20;;;1.45;;
48481;SDS011;34284;48.278;16.378;2023-03-31T17:28:40;2.15;;;1.30;;
48481;SDS011;34284;48.278;16.378;2023-03-31T17:31:13;6.82;;;1.17;;
48481;SDS011;34284;48.278;16.378;2023-03-31T17:33:40;2.87;;;1.50;;
48481;SDS011;34284;48.278;16.378;2023-03-31T17:36:07;3.20;;;1.20;;
48481;SDS011;34284;48.278;16.378;2023-03-31T17:38:33;2.78;;;1.65;;
48481;SDS011;34284;48.278;16.378;2023-03-31T17:41:03;5.20;;;3.33;;
48481;SDS011;34284;48.278;16.378;2023-03-31T17:43:29;4.93;;;2.92;;
48481;SDS011;34284;48.278;16.378;2023-03-31T17:46:08;3.35;;;2.10;;
48481;SDS011;34284;48.278;16.378;2023-03-31T17:48:34;6.35;;;1.23;;
48481;SDS011;34284;48.278;16.378;2023-03-31T17:51:07;3.50;;;1.60;;
48481;SDS011;34284;48.278;16.378;2023-03-31T17:53:34;2.80;;;1.67;;
48481;SDS011;34284;48.278;16.378;2023-03-31T17:56:00;2.45;;;1.25;;
48481;SDS011;34284;48.278;16.378;2023-03-31T17:58:27;2.83;;;1.45;;
48481;SDS011;34284;48.278;16.378;2023-03-31T18:00:54;1.83;;;1.10;;
48481;SDS011;34284;48.278;16.378;2023-03-31T18:03:20;2.90;;;1.42;;
48481;SDS011;34284;48.278;16.378;2023-03-31T18:05:46;1.67;;;0.98;;
48481;SDS011;34284;48.278;16.378;2023-03-31T18:08:13;3.30;;;1.70;;
48481;SDS011;34284;48.278;16.378;2023-03-31T18:10:39;3.22;;;1.10;;
48481;SDS011;34284;48.278;16.378;2023-03-31T18:13:06;3.50;;;1.40;;
48481;SDS011;34284;48.278;16.378;2023-03-31T18:15:33;4.07;;;1.13;;
48481;SDS011;34284;48.278;16.378;2023-03-31T18:17:59;2.50;;;1.35;;
48481;SDS011;34284;48.278;16.378;2023-03-31T18:20:25;2.45;;;1.48;;
48481;SDS011;34284;48.278;16.378;2023-03-31T18:22:51;3.78;;;1.60;;
48481;SDS011;34284;48.278;16.378;2023-03-31T18:25:17;5.07;;;1.75;;
48481;SDS011;34284;48.278;16.378;2023-03-31T18:27:44;2.75;;;1.50;;
48481;SDS011;34284;48.278;16.378;2023-03-31T18:30:11;4.80;;;2.28;;
48481;SDS011;34284;48.278;16.378;2023-03-31T18:32:38;3.30;;;1.90;;